Cambridge, NY (12816)

3:28 PM EDT on April 21, 2015 (GMT -0400)
Oak Hill | | Change Station
CLOSE
Current Station
Personal Weather Station
Location: Buskirk, NY
Elevation: 705 ft
Nearby Weather Stations

Elev 705 ft 42.97 °N, 73.42 °W | Updated 2 minutes ago

Overcast
Overcast
53.4 °F
Feels Like 53.4 °F
N
4.0
Wind Variable Wind from WSW
Gusts 4.9 mph

Today
High -- | Low -- °F
--% Chance of Precip.
Yesterday
High -- | Low -- °F
Precip. -- in
6:02 AM 7:42 PM
Waxing Crescent, 12% visible
Pressure 29.63 in
Visibility 10.0 miles
Clouds Few 4100 ft
Overcast 5500 ft
Dew Point 42 °F
Humidity 64%
Rainfall 0.46 in
Snow Depth Not available.
UV 3.0 out of 12
Pollen 3.50 out of 12
Air Quality Not available.
Flu Activity Widespread
METAR KDDH 211854Z AUTO 28007G16KT 10SM FEW041 OVC055 12/03 A2963 RMK AO2 SLP034 T01220028

More Conditions Fewer Conditions

Pressure 29.63 in
Visibility 10.0 miles
Clouds Few 4100 ft
Overcast 5500 ft
Dew Point 42 °F
Humidity 64%
Rainfall 0.46 in
Snow Depth Not available.
UV 3.0 out of 12
Pollen 3.50 out of 12
Air Quality Not available.
Flu Activity Widespread
METAR KDDH 211854Z AUTO 28007G16KT 10SM FEW041 OVC055 12/03 A2963 RMK AO2 SLP034 T01220028

More Conditions Fewer Conditions

10-Day Weather Forecast

Almanac

Astronomy

Apr. 21, 2015 Rise Set
Actual Time
Civil Twilight
Nautical Twilight
Astronomical Twilight
Moon
Length of Visible Light
Length of Day
Tomorrow will be .
, % of the Moon is Illuminated

Today's Extremes

State Highs State Lows

Community

WunderPhotos

Upload Photos

1,815,503 photos uploaded!

WunderBlogs® & News

Nearby

Air Quality

  Air Quality AQ Index Pollutant
Not available.

Snow Depth

Station Depth Elevation

Earthquake Activity

City Distance Mag. Time & Date
Minimum magnitude displayed is 2.5.

Coastal Water Temperatures

Place Temperature

Stations

Nearby Weather Stations

Station Location Temp. Windchill Dew Point Humidity Wind Precip. Elev Updated Type